Terminal Aerodrome Forecast
Issued by NWS Twin Cities, MN

Home | Current Version | Previous Version | Graphics & Text | Print | Product List | Glossary On
Versions: 1 2 3 4 5 6 7 8 9 10 11 12 13 14 15 16 17 18 19 20 21
016
FTUS43 KMPX 241049 AAB
TAFSTC
TAF AMD
KSTC 241049Z 2411/2506 00000KT 3SM BR SKC
      TEMPO 2411/2412 6SM BR SCT002
     FM241300 15007KT P6SM SKC
     FM250500 15007KT P6SM OVC100=

USA.gov is the U.S. government's official web portal to all federal, state and local government web resources and services.